createdAt,value
2019-04-16T00:01:24.721Z,9.90
2019-04-16T00:03:58.647Z,9.77
2019-04-16T00:06:49.831Z,8.53
2019-04-16T00:09:34.045Z,10.30
2019-04-16T00:12:27.622Z,8.93
2019-04-16T00:14:57.419Z,9.47
2019-04-16T00:17:26.504Z,11.07
2019-04-16T00:19:55.542Z,14.17
2019-04-16T00:22:33.541Z,10.47
2019-04-16T00:25:02.597Z,11.03
2019-04-16T00:27:31.873Z,11.10
2019-04-16T00:30:04.124Z,10.97
2019-04-16T00:32:31.890Z,9.33
2019-04-16T00:35:01.058Z,16.07
2019-04-16T00:37:30.331Z,10.47
2019-04-16T00:39:59.666Z,11.73
2019-04-16T00:42:28.707Z,10.70
2019-04-16T00:44:58.038Z,10.10
2019-04-16T00:47:27.107Z,10.07
2019-04-16T00:49:58.884Z,11.73
2019-04-16T00:52:26.766Z,9.77
2019-04-16T00:54:55.969Z,8.53
2019-04-16T00:57:25.007Z,11.33
2019-04-16T00:59:56.125Z,11.93
2019-04-16T01:02:24.883Z,11.90
2019-04-16T01:04:54.071Z,14.67
2019-04-16T01:07:23.139Z,10.50
2019-04-16T01:09:52.072Z,15.40
2019-04-16T01:12:21.303Z,14.87
2019-04-16T01:14:50.345Z,11.37
2019-04-16T01:17:19.295Z,11.67
2019-04-16T01:19:48.232Z,12.27
2019-04-16T01:22:17.191Z,9.87
2019-04-16T01:24:46.114Z,9.87
2019-04-16T01:27:15.914Z,9.57
2019-04-16T01:29:44.820Z,11.20
2019-04-16T01:32:24.289Z,12.57
2019-04-16T01:35:11.641Z,10.67
2019-04-16T01:37:59.607Z,12.33
2019-04-16T01:40:34.563Z,12.97
2019-04-16T01:43:03.599Z,9.90
2019-04-16T01:45:32.595Z,11.27
2019-04-16T01:48:01.470Z,9.87
2019-04-16T01:50:30.397Z,11.23
2019-04-16T01:52:59.607Z,13.07
2019-04-16T01:55:28.798Z,13.47
2019-04-16T01:57:59.667Z,13.13
2019-04-16T02:00:28.553Z,9.87
2019-04-16T02:02:59.228Z,17.70
2019-04-16T02:05:28.239Z,11.87
2019-04-16T02:07:59.299Z,13.00
2019-04-16T02:10:28.073Z,11.37
2019-04-16T02:12:57.081Z,8.40
2019-04-16T02:15:26.016Z,14.80
2019-04-16T02:17:55.479Z,11.73
2019-04-16T02:20:25.974Z,12.43
2019-04-16T02:22:55.356Z,11.43
2019-04-16T02:25:24.288Z,14.67
2019-04-16T02:27:54.259Z,13.13
2019-04-16T02:30:23.828Z,10.30
2019-04-16T02:32:53.044Z,12.47
2019-04-16T02:35:21.959Z,14.67
2019-04-16T02:37:50.946Z,11.13
2019-04-16T02:40:20.649Z,11.47
2019-04-16T02:42:49.966Z,11.07
2019-04-16T02:45:23.054Z,10.83
2019-04-16T02:47:49.755Z,13.70
2019-04-16T02:50:32.441Z,13.67
2019-04-16T02:53:24.550Z,15.13
2019-04-16T02:56:08.867Z,13.97
2019-04-16T02:58:44.128Z,13.13
2019-04-16T03:01:31.066Z,10.80
2019-04-16T03:04:04.694Z,11.90
2019-04-16T03:06:33.682Z,12.03
2019-04-16T03:09:05.580Z,11.77
2019-04-16T03:11:33.582Z,10.80
2019-04-16T03:14:02.555Z,14.17
2019-04-16T03:16:41.917Z,12.93
2019-04-16T03:19:18.862Z,14.67
2019-04-16T03:21:44.611Z,14.17
2019-04-16T03:24:13.802Z,13.20
2019-04-16T03:26:44.360Z,14.80
2019-04-16T03:29:13.338Z,12.33
2019-04-16T03:31:42.591Z,11.37
2019-04-16T03:34:11.543Z,13.13
2019-04-16T03:36:40.596Z,13.03
2019-04-16T03:39:13.184Z,11.53
2019-04-16T03:41:40.482Z,10.53
2019-04-16T03:44:09.544Z,12.17
2019-04-16T03:46:40.096Z,17.97
2019-04-16T03:49:09.270Z,15.20
2019-04-16T03:51:38.235Z,12.77
2019-04-16T03:54:07.557Z,15.77
2019-04-16T03:56:37.130Z,11.67
2019-04-16T03:59:10.755Z,10.67
2019-04-16T04:01:36.895Z,12.37
2019-04-16T04:04:06.270Z,11.23
2019-04-16T04:06:36.473Z,13.10
2019-04-16T04:09:06.796Z,11.23
2019-04-16T04:11:40.970Z,13.23
2019-04-16T04:14:06.843Z,16.90
2019-04-16T04:16:36.135Z,12.70
2019-04-16T04:19:05.424Z,16.83
2019-04-16T04:21:34.366Z,14.33
2019-04-16T04:24:03.303Z,15.00
2019-04-16T04:26:32.251Z,14.97
2019-04-16T04:29:01.171Z,14.70
2019-04-16T04:31:32.317Z,16.03
2019-04-16T04:34:00.871Z,12.73
2019-04-16T04:36:29.835Z,17.00
2019-04-16T04:38:59.094Z,13.10
2019-04-16T04:41:27.967Z,15.90
2019-04-16T04:43:56.891Z,12.23
2019-04-16T04:46:26.219Z,14.43
2019-04-16T04:48:58.473Z,12.03
2019-04-16T04:51:25.844Z,14.00
2019-04-16T04:53:57.443Z,15.97
2019-04-16T04:56:27.962Z,12.40
2019-04-16T04:58:57.799Z,14.90
2019-04-16T05:01:27.111Z,13.97
2019-04-16T05:04:18.918Z,15.23
2019-04-16T05:06:46.410Z,12.63
2019-04-16T05:09:15.663Z,16.43
2019-04-16T05:11:47.417Z,15.83
2019-04-16T05:14:15.353Z,13.07
2019-04-16T05:16:44.239Z,13.43
2019-04-16T05:19:14.809Z,17.10
2019-04-16T05:21:44.357Z,17.47
2019-04-16T05:24:13.660Z,15.93
2019-04-16T05:26:42.602Z,16.93
2019-04-16T05:29:16.996Z,20.13
2019-04-16T05:31:44.454Z,17.57
2019-04-16T05:34:16.991Z,19.63
2019-04-16T05:36:47.737Z,21.60
2019-04-16T05:39:15.029Z,18.17
2019-04-16T05:41:44.066Z,19.03
2019-04-16T05:44:13.123Z,19.03
2019-04-16T05:46:46.271Z,21.37
2019-04-16T05:49:12.611Z,20.93
2019-04-16T05:51:41.955Z,19.83
2019-04-16T05:54:27.644Z,18.47
2019-04-16T05:56:58.307Z,21.93
2019-04-16T05:59:27.267Z,21.07
2019-04-16T06:02:18.792Z,20.83
2019-04-16T06:04:46.050Z,24.80
2019-04-16T06:07:14.978Z,19.27
2019-04-16T06:09:44.422Z,19.30
2019-04-16T06:12:14.411Z,21.20
2019-04-16T06:14:54.290Z,17.93
2019-04-16T06:17:36.276Z,19.67
2019-04-16T06:20:19.008Z,20.33
2019-04-16T06:23:07.389Z,18.10
2019-04-16T06:25:52.594Z,18.40
2019-04-16T06:28:35.403Z,20.53
2019-04-16T06:31:19.117Z,21.87
2019-04-16T06:33:54.050Z,20.23
2019-04-16T06:36:40.594Z,19.53
2019-04-16T06:39:41.090Z,17.67
2019-04-16T06:42:28.150Z,22.20
2019-04-16T06:45:01.630Z,19.90
2019-04-16T06:47:45.718Z,17.93
2019-04-16T06:50:32.261Z,20.57
2019-04-16T06:53:14.366Z,20.43
2019-04-16T06:56:01.298Z,18.77
2019-04-16T06:58:50.975Z,19.30
2019-04-16T07:01:28.814Z,22.43
2019-04-16T07:04:00.802Z,18.77
2019-04-16T07:06:43.936Z,17.13
2019-04-16T07:09:41.449Z,19.40
2019-04-16T07:12:17.714Z,20.23
2019-04-16T07:14:48.341Z,16.53
2019-04-16T07:17:18.751Z,16.50
2019-04-16T07:19:48.093Z,18.77
2019-04-16T07:22:20.937Z,16.03
2019-04-16T07:24:50.586Z,16.83
2019-04-16T07:27:21.055Z,12.70
2019-04-16T07:30:05.132Z,19.27
2019-04-16T07:32:51.925Z,16.83
2019-04-16T07:35:48.906Z,17.90
2019-04-16T07:38:28.223Z,17.53
2019-04-16T07:41:19.639Z,14.70
2019-04-16T07:44:10.493Z,15.33
2019-04-16T07:46:48.347Z,14.93
2019-04-16T07:49:35.003Z,16.37
2019-04-16T07:52:22.798Z,17.23
2019-04-16T07:55:13.903Z,13.53
2019-04-16T07:57:42.826Z,13.80
2019-04-16T08:00:12.782Z,12.40
2019-04-16T08:02:41.794Z,13.73
2019-04-16T08:05:11.179Z,12.97
2019-04-16T08:07:40.119Z,13.87
2019-04-16T08:10:09.480Z,17.03
2019-04-16T08:12:42.187Z,12.13
2019-04-16T08:15:14.577Z,15.10
2019-04-16T08:17:42.179Z,14.23
2019-04-16T08:20:11.251Z,10.97
2019-04-16T08:22:40.293Z,12.67
2019-04-16T08:25:09.402Z,13.87
2019-04-16T08:27:38.359Z,12.50
2019-04-16T08:30:09.873Z,12.07
2019-04-16T08:32:38.785Z,13.07
2019-04-16T08:35:07.862Z,13.80
2019-04-16T08:37:48.357Z,13.27
2019-04-16T08:40:08.802Z,12.13
2019-04-16T08:42:44.617Z,12.57
2019-04-16T08:45:10.818Z,10.93
2019-04-16T08:47:44.634Z,10.60
2019-04-16T08:50:12.170Z,14.17
2019-04-16T08:52:41.670Z,11.93
2019-04-16T08:55:11.798Z,10.53
2019-04-16T08:57:40.843Z,11.03
2019-04-16T09:00:15.143Z,13.50
2019-04-16T09:02:43.526Z,10.13
2019-04-16T09:05:12.943Z,10.97
2019-04-16T09:07:42.341Z,13.50
2019-04-16T09:10:18.374Z,13.33
2019-04-16T09:12:47.565Z,12.23
2019-04-16T09:15:27.176Z,10.77
2019-04-16T09:18:10.488Z,9.57
2019-04-16T09:20:41.454Z,10.17
2019-04-16T09:23:10.381Z,9.27
2019-04-16T09:26:13.043Z,10.63
2019-04-16T09:29:08.416Z,9.47
2019-04-16T09:31:56.925Z,12.27
2019-04-16T09:34:43.563Z,10.57
2019-04-16T09:37:28.649Z,11.43
2019-04-16T09:40:17.669Z,12.60
2019-04-16T09:42:44.803Z,13.63
2019-04-16T09:45:19.513Z,13.27
2019-04-16T09:47:48.426Z,12.57
2019-04-16T09:50:17.466Z,12.93
2019-04-16T09:52:46.719Z,13.27
2019-04-16T09:55:18.867Z,11.23
2019-04-16T09:57:46.231Z,11.10
2019-04-16T10:00:20.445Z,11.50
2019-04-16T10:02:55.051Z,10.97
2019-04-16T10:05:23.396Z,11.00
2019-04-16T10:07:52.246Z,15.67
2019-04-16T10:10:24.255Z,11.33
2019-04-16T10:12:51.835Z,11.80
2019-04-16T10:15:20.765Z,10.93
2019-04-16T10:17:49.682Z,12.50
2019-04-16T10:20:18.763Z,12.03
2019-04-16T10:22:47.666Z,13.60
2019-04-16T10:25:16.834Z,12.47
2019-04-16T10:27:54.619Z,11.67
2019-04-16T10:30:37.842Z,14.17
2019-04-16T10:33:07.054Z,10.87
2019-04-16T10:35:36.257Z,11.83
2019-04-16T10:38:26.118Z,13.20
2019-04-16T10:41:03.478Z,12.83
2019-04-16T10:43:49.527Z,9.17
2019-04-16T10:46:27.253Z,11.27
2019-04-16T10:49:05.012Z,11.23
2019-04-16T10:51:40.093Z,11.37
2019-04-16T10:54:38.129Z,14.00
2019-04-16T10:57:23.035Z,12.37
2019-04-16T11:00:09.673Z,11.63
2019-04-16T11:02:46.574Z,11.73
2019-04-16T11:05:40.816Z,9.33
2019-04-16T11:08:11.301Z,12.73
2019-04-16T11:10:40.291Z,9.27
2019-04-16T11:13:12.489Z,9.40
2019-04-16T11:15:41.586Z,9.40
2019-04-16T11:18:10.616Z,11.77
2019-04-16T11:20:39.757Z,12.20
2019-04-16T11:23:08.700Z,8.77
2019-04-16T11:25:37.670Z,11.80
2019-04-16T11:28:07.004Z,9.37
2019-04-16T11:30:38.979Z,8.20
2019-04-16T11:33:08.372Z,10.67
2019-04-16T11:35:37.941Z,9.10
2019-04-16T11:38:07.006Z,9.43
2019-04-16T11:40:36.006Z,8.30
2019-04-16T11:43:05.107Z,9.20
2019-04-16T11:45:34.214Z,11.30
2019-04-16T11:48:03.260Z,9.23
2019-04-16T11:50:35.862Z,9.63
2019-04-16T11:53:03.374Z,9.00
2019-04-16T11:55:32.714Z,8.87
2019-04-16T11:58:02.365Z,11.90
2019-04-16T12:00:42.341Z,8.07
2019-04-16T12:03:24.046Z,11.10
2019-04-16T12:06:03.900Z,9.23
2019-04-16T12:08:44.357Z,9.50
2019-04-16T12:11:23.203Z,8.23
2019-04-16T12:14:04.144Z,9.73
2019-04-16T12:16:47.689Z,8.50
2019-04-16T12:19:34.402Z,12.60
2019-04-16T12:22:26.312Z,12.37
2019-04-16T12:25:20.274Z,8.23
2019-04-16T12:28:26.695Z,12.27
2019-04-16T12:31:10.017Z,11.20
2019-04-16T12:33:53.462Z,12.73
2019-04-16T12:36:53.370Z,9.73
2019-04-16T12:39:47.455Z,11.20
2019-04-16T12:42:41.179Z,9.27
2019-04-16T12:45:25.131Z,12.33
2019-04-16T12:48:09.766Z,10.03
2019-04-16T12:51:00.332Z,13.80
2019-04-16T12:54:06.739Z,9.67
2019-04-16T12:56:49.664Z,10.33
2019-04-16T12:59:25.742Z,10.67
2019-04-16T13:02:15.730Z,11.63
2019-04-16T13:04:50.475Z,14.07
2019-04-16T13:07:23.718Z,12.23
2019-04-16T13:10:04.719Z,13.53
2019-04-16T13:12:44.223Z,10.87
2019-04-16T13:15:18.554Z,12.57
2019-04-16T13:18:18.594Z,10.43
2019-04-16T13:21:11.328Z,10.50
2019-04-16T13:23:44.085Z,9.73
2019-04-16T13:26:27.538Z,9.07
2019-04-16T13:28:56.482Z,10.40
2019-04-16T13:31:25.746Z,11.47
2019-04-16T13:33:54.744Z,10.17
2019-04-16T13:36:26.930Z,10.90
2019-04-16T13:38:59.802Z,7.90
2019-04-16T13:41:28.863Z,9.73
2019-04-16T13:44:02.235Z,8.53
2019-04-16T13:46:34.611Z,9.27
2019-04-16T13:49:07.763Z,8.47
2019-04-16T13:51:37.054Z,11.13
2019-04-16T13:54:11.891Z,11.00
2019-04-16T13:56:50.146Z,10.00
2019-04-16T13:59:36.302Z,8.73
2019-04-16T14:02:20.807Z,8.30
2019-04-16T14:04:49.805Z,10.80
2019-04-16T14:07:19.129Z,9.97
2019-04-16T14:09:48.486Z,9.20
2019-04-16T14:12:17.431Z,8.40
2019-04-16T14:14:49.386Z,8.47
2019-04-16T14:17:20.722Z,7.93
2019-04-16T14:19:49.803Z,9.73
2019-04-16T14:22:21.679Z,8.60
2019-04-16T14:24:49.474Z,8.17
2019-04-16T14:27:18.530Z,8.53
2019-04-16T14:29:47.634Z,9.63
2019-04-16T14:32:16.982Z,9.13
2019-04-16T14:35:14.323Z,7.20
2019-04-16T14:37:43.295Z,9.47
2019-04-16T14:40:16.687Z,6.80
2019-04-16T14:42:45.766Z,7.80
2019-04-16T14:45:57.104Z,7.30
2019-04-16T14:48:11.039Z,8.37
2019-04-16T14:50:39.989Z,8.70
2019-04-16T14:53:09.134Z,8.00
2019-04-16T14:55:59.729Z,7.50
2019-04-16T14:58:55.610Z,8.20
2019-04-16T15:01:36.466Z,9.27
2019-04-16T15:04:18.318Z,7.53
2019-04-16T15:06:54.766Z,9.13
2019-04-16T15:09:42.884Z,8.33
2019-04-16T15:12:34.736Z,7.70
2019-04-16T15:15:04.737Z,8.20
2019-04-16T15:17:45.314Z,8.30
2019-04-16T15:20:51.822Z,7.73
2019-04-16T15:23:49.495Z,9.47
2019-04-16T15:26:55.970Z,7.57
2019-04-16T15:29:34.055Z,9.20
2019-04-16T15:32:22.442Z,12.53
2019-04-16T15:34:51.474Z,10.20
2019-04-16T15:37:45.556Z,8.43
2019-04-16T15:40:25.983Z,7.43
2019-04-16T15:43:19.742Z,8.87
2019-04-16T15:46:25.301Z,8.07
2019-04-16T15:49:02.739Z,8.03
2019-04-16T15:52:09.558Z,7.77
2019-04-16T15:54:52.732Z,10.20
2019-04-16T15:57:37.805Z,7.07
2019-04-16T16:00:38.554Z,7.40
2019-04-16T16:03:25.193Z,7.73
2019-04-16T16:06:02.019Z,9.13
2019-04-16T16:08:38.946Z,8.97
2019-04-16T16:11:17.196Z,8.17
2019-04-16T16:13:46.733Z,7.80
2019-04-16T16:16:18.102Z,6.77
2019-04-16T16:18:47.170Z,8.33
2019-04-16T16:21:16.148Z,9.13
2019-04-16T16:23:45.067Z,6.57
2019-04-16T16:26:14.010Z,8.67
2019-04-16T16:28:42.929Z,9.30
2019-04-16T16:31:11.839Z,7.90
2019-04-16T16:33:40.850Z,8.23
2019-04-16T16:36:09.786Z,11.77
2019-04-16T16:38:38.927Z,10.60
2019-04-16T16:41:07.838Z,10.37
2019-04-16T16:43:36.999Z,11.57
2019-04-16T16:46:31.058Z,12.57
2019-04-16T16:49:00.455Z,10.40
2019-04-16T16:51:29.406Z,8.67
2019-04-16T16:54:13.706Z,9.37
2019-04-16T16:56:46.241Z,10.50
2019-04-16T16:59:49.675Z,11.60
2019-04-16T17:02:32.446Z,11.40
2019-04-16T17:05:01.805Z,9.40
2019-04-16T17:07:31.522Z,10.87
2019-04-16T17:10:00.437Z,9.93
2019-04-16T17:12:29.347Z,12.83
2019-04-16T17:14:58.306Z,10.73
2019-04-16T17:17:27.254Z,11.57
2019-04-16T17:19:56.215Z,11.83
2019-04-16T17:22:25.141Z,13.80
2019-04-16T17:24:54.557Z,9.93
2019-04-16T17:27:24.083Z,8.90
2019-04-16T17:29:53.153Z,11.83
2019-04-16T17:32:22.464Z,10.80
2019-04-16T17:34:51.511Z,28.80
2019-04-16T17:37:25.973Z,13.53
2019-04-16T17:40:01.218Z,12.50
2019-04-16T17:42:37.024Z,12.10
2019-04-16T17:45:38.646Z,12.33
2019-04-16T17:48:26.746Z,11.57
2019-04-16T17:51:23.908Z,8.73
2019-04-16T17:53:57.665Z,8.97
2019-04-16T17:56:57.974Z,8.93
2019-04-16T17:59:32.293Z,9.73
2019-04-16T18:02:19.234Z,9.53
2019-04-16T18:05:10.358Z,9.20
2019-04-16T18:07:57.070Z,10.33
2019-04-16T18:10:43.846Z,8.30
2019-04-16T18:13:32.909Z,9.10
2019-04-16T18:16:07.667Z,8.53
2019-04-16T18:18:43.272Z,9.10
2019-04-16T18:21:46.447Z,9.63
2019-04-16T18:24:34.530Z,8.07
2019-04-16T18:27:21.598Z,8.20
2019-04-16T18:29:56.762Z,10.47
2019-04-16T18:32:56.318Z,8.70
2019-04-16T18:35:30.359Z,11.60
2019-04-16T18:38:22.201Z,11.90
2019-04-16T18:41:03.954Z,10.50
2019-04-16T18:44:04.930Z,10.47
2019-04-16T18:46:53.219Z,13.90
2019-04-16T18:49:23.775Z,14.53
2019-04-16T18:51:52.882Z,12.60
2019-04-16T18:54:22.119Z,24.53
2019-04-16T18:56:51.391Z,26.20
2019-04-16T18:59:20.382Z,20.10
2019-04-16T19:01:52.462Z,15.13
2019-04-16T19:04:21.798Z,19.10
2019-04-16T19:06:50.887Z,17.00
2019-04-16T19:09:21.045Z,17.20
2019-04-16T19:11:50.346Z,16.23
2019-04-16T19:14:19.638Z,14.77
2019-04-16T19:16:48.609Z,15.27
2019-04-16T19:19:17.556Z,17.87
2019-04-16T19:21:52.179Z,17.43
2019-04-16T19:24:20.274Z,19.30
2019-04-16T19:26:49.218Z,24.67
2019-04-16T19:29:18.151Z,20.57
2019-04-16T19:31:47.179Z,23.73
2019-04-16T19:34:16.129Z,22.60
2019-04-16T19:36:45.234Z,24.20
2019-04-16T19:39:15.457Z,19.20
2019-04-16T19:41:44.707Z,20.67
2019-04-16T19:44:13.655Z,14.63
2019-04-16T19:46:45.971Z,18.57
2019-04-16T19:49:13.326Z,19.03
2019-04-16T19:51:42.203Z,16.90
2019-04-16T19:54:11.154Z,13.80
2019-04-16T19:56:40.178Z,15.13
2019-04-16T19:59:09.422Z,15.20
2019-04-16T20:01:38.355Z,14.03
2019-04-16T20:04:10.687Z,12.23
2019-04-16T20:06:38.243Z,14.23
2019-04-16T20:09:08.483Z,13.90
2019-04-16T20:11:37.643Z,10.13
2019-04-16T20:14:06.726Z,13.03
2019-04-16T20:16:35.680Z,14.47
2019-04-16T20:19:04.682Z,11.53
2019-04-16T20:21:37.399Z,10.57
2019-04-16T20:24:04.299Z,11.63
2019-04-16T20:26:33.565Z,12.40
2019-04-16T20:29:02.874Z,10.70
2019-04-16T20:31:31.879Z,12.37
2019-04-16T20:34:00.803Z,9.70
2019-04-16T20:36:29.758Z,11.03
2019-04-16T20:38:58.649Z,9.07
2019-04-16T20:41:27.561Z,10.80
2019-04-16T20:43:56.516Z,11.77
2019-04-16T20:46:25.425Z,12.53
2019-04-16T20:49:06.776Z,10.20
2019-04-16T20:51:26.593Z,11.30
2019-04-16T20:53:55.714Z,11.87
2019-04-16T20:56:24.914Z,9.67
2019-04-16T20:58:53.988Z,14.37
2019-04-16T21:01:34.009Z,12.57
2019-04-16T21:04:04.981Z,12.67
2019-04-16T21:06:27.643Z,13.77
2019-04-16T21:08:58.223Z,11.47
2019-04-16T21:11:27.132Z,12.60
2019-04-16T21:13:56.357Z,18.30
2019-04-16T21:16:25.434Z,14.97
2019-04-16T21:18:54.441Z,14.57
2019-04-16T21:21:24.385Z,12.47
2019-04-16T21:23:53.701Z,12.10
2019-04-16T21:26:22.776Z,12.67
2019-04-16T21:29:05.630Z,13.60
2019-04-16T21:31:42.169Z,13.50
2019-04-16T21:34:17.463Z,15.87
2019-04-16T21:37:09.955Z,14.90
2019-04-16T21:39:47.191Z,13.60
2019-04-16T21:42:16.741Z,12.20
2019-04-16T21:44:45.751Z,16.17
2019-04-16T21:47:14.671Z,13.17
2019-04-16T21:49:45.840Z,12.03
2019-04-16T21:52:14.663Z,18.27
2019-04-16T21:54:43.918Z,11.70
2019-04-16T21:57:14.322Z,13.27
2019-04-16T21:59:43.780Z,10.70
2019-04-16T22:02:38.009Z,9.23
2019-04-16T22:05:07.405Z,11.67
2019-04-16T22:07:36.403Z,10.57
2019-04-16T22:10:05.511Z,13.00
2019-04-16T22:12:34.513Z,12.90
2019-04-16T22:15:03.984Z,11.17
2019-04-16T22:17:35.869Z,14.00
2019-04-16T22:20:04.961Z,12.30
2019-04-16T22:22:34.279Z,12.30
2019-04-16T22:25:03.222Z,11.17
2019-04-16T22:27:32.182Z,13.13
2019-04-16T22:30:01.062Z,11.67
2019-04-16T22:32:30.974Z,11.93
2019-04-16T22:35:00.246Z,10.40
2019-04-16T22:37:29.230Z,11.33
2019-04-16T22:40:22.873Z,10.60
2019-04-16T22:43:08.587Z,9.80
2019-04-16T22:45:52.052Z,12.10
2019-04-16T22:48:19.627Z,13.07
2019-04-16T22:50:48.854Z,12.67
2019-04-16T22:53:18.024Z,11.77
2019-04-16T22:55:47.244Z,14.63
2019-04-16T22:58:25.986Z,11.70
2019-04-16T23:01:01.436Z,14.00
2019-04-16T23:03:30.334Z,11.47
2019-04-16T23:06:00.957Z,12.03
2019-04-16T23:08:29.798Z,13.23
2019-04-16T23:10:58.969Z,11.90
2019-04-16T23:13:32.311Z,12.90
2019-04-16T23:15:58.949Z,16.67
2019-04-16T23:18:28.338Z,11.90
2019-04-16T23:20:57.395Z,12.23
2019-04-16T23:23:26.594Z,14.33
2019-04-16T23:25:59.046Z,10.87
2019-04-16T23:28:26.499Z,13.03
2019-04-16T23:30:55.682Z,10.87
2019-04-16T23:33:25.009Z,12.83
2019-04-16T23:35:53.918Z,14.17
2019-04-16T23:38:22.855Z,11.43
2019-04-16T23:40:51.806Z,15.10
2019-04-16T23:43:38.732Z,13.87
2019-04-16T23:46:25.726Z,12.17
2019-04-16T23:49:08.639Z,10.07
2019-04-16T23:51:41.897Z,13.17
2019-04-16T23:54:17.319Z,12.60
2019-04-16T23:57:02.456Z,14.50
2019-04-16T23:59:42.547Z,10.33
